Terminal Aerodrome Forecast
Issued by NWS Des Moines, IA

Home | Current Version | Previous Version | Text Only | Print | Product List | Glossary On
Versions: 1 2 3 4 5 6 7 8 9 10 11 12 13 14 15 16 17 18 19 20 21 22 23 24 25 26 27 28 29 30 31 32 33 34 35 36
272
FTUS43 KDMX 181740
TAFALO
TAF
KALO 181740Z 1818/1918 22012KT P6SM FEW011
     FM190000 21008KT P6SM SKC WS020/26040KT
     FM190500 25008KT P6SM SKC
     FM191100 28008KT P6SM SCT220
     FM191600 31010KT P6SM SKC=

USA.gov is the U.S. government's official web portal to all federal, state and local government web resources and services.